createdAt,value
2018-07-09T00:02:10.652Z,100572.97
2018-07-09T00:07:14.349Z,100572.67
2018-07-09T00:12:18.041Z,100572.14
2018-07-09T00:17:21.525Z,100565.06
2018-07-09T00:22:24.978Z,100568.08
2018-07-09T00:27:28.453Z,100568.64
2018-07-09T00:32:31.939Z,100569.70
2018-07-09T00:37:35.655Z,100571.61
2018-07-09T00:42:39.127Z,100564.83
2018-07-09T00:47:42.681Z,100573.53
2018-07-09T00:52:46.740Z,100575.98
2018-07-09T00:57:50.903Z,100573.28
2018-07-09T01:02:54.402Z,100564.87
2018-07-09T01:07:57.898Z,100567.29
2018-07-09T01:13:01.394Z,100566.22
2018-07-09T01:18:04.874Z,100559.69
2018-07-09T01:23:08.594Z,100565.41
2018-07-09T01:28:12.173Z,100555.11
2018-07-09T01:33:16.055Z,100555.92
2018-07-09T01:38:19.673Z,100543.41
2018-07-09T01:43:23.189Z,100540.69
2018-07-09T01:48:26.837Z,100542.05
2018-07-09T01:53:30.509Z,100545.60
2018-07-09T01:58:34.136Z,100543.14
2018-07-09T02:03:37.625Z,100542.06
2018-07-09T02:08:41.159Z,100539.34
2018-07-09T02:13:45.077Z,100540.72
2018-07-09T02:18:48.599Z,100534.74
2018-07-09T02:23:52.062Z,100543.16
2018-07-09T02:28:55.646Z,100536.10
2018-07-09T02:33:59.198Z,100542.37
2018-07-09T02:39:02.986Z,100539.91
2018-07-09T02:44:06.705Z,100541.27
2018-07-09T02:49:10.282Z,100548.09
2018-07-09T02:54:14.478Z,100552.72
2018-07-09T02:59:17.919Z,100554.63
2018-07-09T03:04:21.585Z,100544.53
2018-07-09T03:09:25.292Z,100548.35
2018-07-09T03:14:28.820Z,100550.52
2018-07-09T03:19:32.310Z,100543.47
2018-07-09T03:24:36.010Z,100561.94
2018-07-09T03:29:39.531Z,100561.95
2018-07-09T03:34:43.180Z,100564.09
2018-07-09T03:39:46.672Z,100573.89
2018-07-09T03:44:50.405Z,100568.44
2018-07-09T03:49:54.221Z,100578.22
2018-07-09T03:54:57.930Z,100581.22
2018-07-09T04:00:01.587Z,100587.45
2018-07-09T04:05:05.304Z,100589.63
2018-07-09T04:10:08.918Z,100594.52
2018-07-09T04:15:12.649Z,100596.11
2018-07-09T04:20:16.157Z,100599.09
2018-07-09T04:25:19.673Z,100606.41
2018-07-09T04:30:23.293Z,100606.13
2018-07-09T04:35:26.978Z,100602.56
2018-07-09T04:40:30.526Z,100598.97
2018-07-09T04:45:34.024Z,100594.56
2018-07-09T04:50:37.552Z,100596.23
2018-07-09T04:55:41.276Z,100594.86
2018-07-09T05:00:45.202Z,100595.08
2018-07-09T05:05:48.651Z,100591.91
2018-07-09T05:10:52.330Z,100593.73
2018-07-09T05:15:56.047Z,100610.03
2018-07-09T05:20:59.669Z,100600.80
2018-07-09T05:26:03.188Z,100603.73
2018-07-09T05:31:06.694Z,100600.36
2018-07-09T05:36:10.217Z,100603.27
2018-07-09T05:41:13.626Z,100603.00
2018-07-09T05:46:17.046Z,100591.72
2018-07-09T05:51:20.721Z,100590.84
2018-07-09T05:56:24.140Z,100597.82
2018-07-09T06:01:27.563Z,100609.55
2018-07-09T06:06:31.072Z,100606.59
2018-07-09T06:11:34.746Z,100609.74
2018-07-09T06:16:38.339Z,100608.42
2018-07-09T06:21:41.796Z,100606.83
2018-07-09T06:26:45.252Z,100602.89
2018-07-09T06:31:48.670Z,100602.86
2018-07-09T06:36:52.244Z,100601.41
2018-07-09T06:41:55.702Z,100607.57
2018-07-09T06:46:59.458Z,100610.55
2018-07-09T06:52:03.331Z,100597.55
2018-07-09T06:57:06.794Z,100594.64
2018-07-09T07:02:11.462Z,100594.22
2018-07-09T07:07:15.326Z,100594.33
2018-07-09T07:12:18.834Z,100583.04
2018-07-09T07:17:22.246Z,100586.59
2018-07-09T07:22:25.865Z,100588.37
2018-07-09T07:27:29.518Z,100593.37
2018-07-09T07:32:32.966Z,100585.52
2018-07-09T07:37:36.425Z,100585.14
2018-07-09T07:42:39.932Z,100583.45
2018-07-09T07:47:43.401Z,100599.64
2018-07-09T07:52:46.863Z,100599.41
2018-07-09T07:57:50.487Z,100592.16
2018-07-09T08:02:54.067Z,100577.48
2018-07-09T08:07:57.557Z,100579.42
2018-07-09T08:13:26.863Z,100573.42
2018-07-09T08:18:04.582Z,100571.30
2018-07-09T08:23:08.036Z,100571.97
2018-07-09T08:28:11.497Z,100576.25
2018-07-09T08:33:15.210Z,100567.97
2018-07-09T08:38:18.614Z,100569.88
2018-07-09T08:43:22.123Z,100569.63
2018-07-09T08:48:25.632Z,100572.07
2018-07-09T08:53:29.075Z,100563.16
2018-07-09T08:58:32.537Z,100570.14
2018-07-09T09:03:36.022Z,100564.92
2018-07-09T09:08:39.458Z,100563.67
2018-07-09T09:13:43.088Z,100566.66
2018-07-09T09:18:46.537Z,100567.97
2018-07-09T09:23:50.233Z,100564.72
2018-07-09T09:28:53.963Z,100558.99
2018-07-09T09:33:57.453Z,100559.60
2018-07-09T09:39:00.923Z,100555.78
2018-07-09T09:44:04.406Z,100547.68
2018-07-09T09:49:07.855Z,100554.81
2018-07-09T09:54:11.530Z,100542.83
2018-07-09T09:59:15.026Z,100539.82
2018-07-09T10:04:18.549Z,100541.48
2018-07-09T10:09:22.059Z,100535.27
2018-07-09T10:14:25.624Z,100533.73
2018-07-09T10:19:29.120Z,100526.41
2018-07-09T10:24:32.594Z,100516.08
2018-07-09T10:29:36.105Z,100509.33
2018-07-09T10:34:39.661Z,100512.63
2018-07-09T10:39:43.031Z,100512.67
2018-07-09T10:44:46.518Z,100513.51
2018-07-09T10:49:50.104Z,100506.98
2018-07-09T10:54:53.935Z,100505.64
2018-07-09T10:59:57.645Z,100501.59
2018-07-09T11:05:01.107Z,100505.13
2018-07-09T11:10:04.580Z,100495.91
2018-07-09T11:15:08.397Z,100508.94
2018-07-09T11:20:11.912Z,100502.97
2018-07-09T11:25:15.602Z,100500.52
2018-07-09T11:30:19.046Z,100494.81
2018-07-09T11:35:22.502Z,100492.39
2018-07-09T11:40:25.936Z,100491.05
2018-07-09T11:45:29.588Z,100493.24
2018-07-09T11:50:33.110Z,100489.15
2018-07-09T11:55:36.546Z,100477.23
2018-07-09T12:00:39.974Z,100482.37
2018-07-09T12:05:43.674Z,100479.67
2018-07-09T12:10:47.454Z,100464.47
2018-07-09T12:15:51.160Z,100455.78
2018-07-09T12:20:54.613Z,100452.80
2018-07-09T12:25:58.306Z,100439.75
2018-07-09T12:31:01.914Z,100441.92
2018-07-09T12:36:07.054Z,100428.63
2018-07-09T12:41:10.497Z,100422.92
2018-07-09T12:46:14.222Z,100419.38
2018-07-09T12:51:17.736Z,100410.72
2018-07-09T12:56:21.204Z,100407.98
2018-07-09T13:01:24.739Z,100406.61
2018-07-09T13:06:28.394Z,100412.05
2018-07-09T13:11:32.177Z,100410.96
2018-07-09T13:16:35.593Z,100387.87
2018-07-09T13:21:39.820Z,100397.38
2018-07-09T13:26:43.478Z,100387.61
2018-07-09T13:31:47.422Z,100381.89
2018-07-09T13:36:50.917Z,100378.62
2018-07-09T13:41:54.428Z,100371.02
2018-07-09T13:46:58.137Z,100366.37
2018-07-09T13:52:02.125Z,100361.19
2018-07-09T13:57:05.593Z,100363.34
2018-07-09T14:02:09.702Z,100352.19
2018-07-09T14:07:13.288Z,100342.06
2018-07-09T14:12:17.081Z,100342.31
2018-07-09T14:17:20.864Z,100341.70
2018-07-09T14:22:24.377Z,100326.73
2018-07-09T14:27:28.001Z,100318.25
2018-07-09T14:32:31.705Z,100306.51
2018-07-09T14:37:35.217Z,100303.50
2018-07-09T14:42:39.172Z,100303.23
2018-07-09T14:47:43.373Z,100290.97
2018-07-09T14:52:47.086Z,100293.39
2018-07-09T14:57:50.519Z,100298.03
2018-07-09T15:02:54.150Z,100296.15
2018-07-09T15:07:58.296Z,100301.59
2018-07-09T15:13:01.846Z,100285.05
2018-07-09T15:18:05.983Z,100289.94
2018-07-09T15:23:09.382Z,100289.94
2018-07-09T15:28:12.937Z,100282.84
2018-07-09T15:33:16.721Z,100277.16
2018-07-09T15:38:20.689Z,100291.06
2018-07-09T15:44:03.268Z,100290.78
2018-07-09T15:49:06.961Z,100289.42
2018-07-09T15:54:10.654Z,100279.06
2018-07-09T15:59:14.117Z,100275.46
2018-07-09T16:04:17.841Z,100280.31
2018-07-09T16:09:21.625Z,100276.78
2018-07-09T16:14:25.124Z,100274.57
2018-07-09T16:19:28.759Z,100271.86
2018-07-09T16:24:32.380Z,100275.94
2018-07-09T16:29:36.005Z,100269.14
2018-07-09T16:34:40.023Z,100268.06
2018-07-09T16:39:43.540Z,100262.08
2018-07-09T16:44:47.503Z,100254.17
2018-07-09T16:49:51.209Z,100248.74
2018-07-09T16:54:54.851Z,100255.55
2018-07-09T16:59:58.627Z,100259.62
2018-07-09T17:05:03.022Z,100257.45
2018-07-09T17:10:08.290Z,100262.63
2018-07-09T17:15:11.854Z,100260.72
2018-07-09T17:20:15.561Z,100263.45
2018-07-09T17:25:19.155Z,100257.71
2018-07-09T17:30:23.426Z,100254.73
2018-07-09T17:35:26.970Z,100247.94
2018-07-09T17:40:30.668Z,100246.02
2018-07-09T17:45:34.195Z,100242.70
2018-07-09T17:50:37.998Z,100241.52
2018-07-09T17:55:41.757Z,100234.66
2018-07-09T18:00:45.312Z,100241.08
2018-07-09T18:05:48.929Z,100239.70
2018-07-09T18:10:52.411Z,100241.33
2018-07-09T18:15:56.027Z,100244.86
2018-07-09T18:20:59.497Z,100243.75
2018-07-09T18:26:03.217Z,100237.45
2018-07-09T18:31:06.925Z,100229.34
2018-07-09T18:36:10.529Z,100225.01
2018-07-09T18:41:14.265Z,100226.41
2018-07-09T18:46:18.444Z,100225.36
2018-07-09T18:51:22.112Z,100221.83
2018-07-09T18:56:25.826Z,100227.05
2018-07-09T19:01:29.414Z,100230.29
2018-07-09T19:06:45.266Z,100233.56
2018-07-09T19:11:48.842Z,100233.05
2018-07-09T19:18:12.109Z,100230.08
2018-07-09T19:23:14.691Z,100235.52
2018-07-09T19:28:17.165Z,100237.17
2018-07-09T19:33:19.527Z,100237.98
2018-07-09T19:38:21.921Z,100249.67
2018-07-09T19:43:25.229Z,100242.91
2018-07-09T19:48:27.585Z,100254.90
2018-07-09T19:53:29.913Z,100254.09
2018-07-09T19:58:32.270Z,100243.51
2018-07-09T20:03:34.680Z,100243.51
2018-07-09T20:08:42.321Z,100245.97
2018-07-09T20:13:51.761Z,100241.34
2018-07-09T20:18:54.129Z,100228.84
2018-07-09T20:23:56.474Z,100232.38
2018-07-09T20:28:59.006Z,100223.67
2018-07-09T20:34:01.378Z,100223.67
2018-07-09T20:39:06.026Z,100226.13
2018-07-09T20:44:08.607Z,100228.04
2018-07-09T20:49:10.986Z,100228.04
2018-07-09T20:54:13.538Z,100229.69
2018-07-09T20:59:15.925Z,100228.62
2018-07-09T21:04:23.605Z,100235.98
2018-07-09T21:09:26.597Z,100231.62
2018-07-09T21:14:28.986Z,100244.66
2018-07-09T21:19:31.351Z,100237.02
2018-07-09T21:24:33.704Z,100243.82
2018-07-09T21:29:36.105Z,100250.91
2018-07-09T21:34:38.573Z,100254.73
2018-07-09T21:39:41.464Z,100259.36
2018-07-09T21:44:43.973Z,100277.05
2018-07-09T21:49:47.361Z,100274.62
2018-07-09T21:54:49.765Z,100269.98
2018-07-09T21:59:52.327Z,100272.97
2018-07-09T22:04:54.639Z,100269.73
2018-07-09T22:09:57.056Z,100267.56
2018-07-09T22:14:59.629Z,100266.20
2018-07-09T22:20:02.069Z,100266.49
2018-07-09T22:25:04.874Z,100262.16
2018-07-09T22:30:07.260Z,100264.59
2018-07-09T22:35:11.146Z,100274.66
2018-07-09T22:40:14.954Z,100271.67
2018-07-09T22:45:18.394Z,100280.09
2018-07-09T22:50:22.265Z,100281.74
2018-07-09T22:55:37.057Z,100274.43
2018-07-09T23:00:40.778Z,100268.44
2018-07-09T23:05:44.865Z,100277.16
2018-07-09T23:14:02.534Z,100266.27
2018-07-09T23:19:19.206Z,100271.71
2018-07-09T23:24:21.569Z,100270.91
2018-07-09T23:29:23.907Z,100255.40
2018-07-09T23:34:26.205Z,100261.94
2018-07-09T23:39:28.832Z,100259.48
2018-07-09T23:44:31.177Z,100240.77
2018-07-09T23:49:33.508Z,100239.41
2018-07-09T23:54:36.031Z,100246.47
2018-07-09T23:59:51.837Z,100240.73
